Latest Coastal Weather Observations for Hogan Island

IDV60701

Issued at 2:51 pm EDT Wednesday 22 November 2017 (issued every 10 minutes, with the page automatically refreshed every 10 minutes)

About coastal observations | Map of coastal stations | Coastal observations for VIC | Marine services | Other Formats
Station Details ID: 200838 Name: HOGAN ISLAND Lat: -39.22 Lon: 146.98 Height: 116.0 m
Data from the previous 72 hours. | See also: Recent months at Hogan Island
Date/Time
EDT
Temp
°C
Wind Pressure Rain since
9am
mm
Weather Cloud Vis
km
Sea
Height
m
Swell
Dir  Spd
kts
Gust
kts
hPa Trend Height
m
Period
s
Dir
22/02:30pm 19.5 E 24 28 1017.3 - 0.0 - - - - - - -
22/02:00pm 19.9 E 23 27 1017.5 - 0.0 - - - - - - -
22/01:30pm 19.7 E 25 30 1017.6 - 0.0 - - - - - - -
22/01:00pm 20.5 E 24 29 1017.9 - 0.0 - - - - - - -
22/12:30pm 19.7 E 24 28 1018.0 - 0.0 - - - - - - -
22/12:00pm 19.8 E 26 31 1018.0 - 0.0 - - - - - - -
22/11:30am 19.6 E 25 31 1018.1 - 0.0 - - - - - - -
22/11:00am 19.3 E 25 29 1018.4 - 0.0 - - - - - - -
22/10:30am 19.5 E 23 27 1018.5 - 0.0 - - - - - - -
22/10:00am 19.0 E 23 27 1018.7 - 0.0 - - - - - - -
22/09:30am 18.7 E 22 25 1019.0 - 0.0 - - - - - - -
22/09:00am 18.1 E 21 25 1019.2 - 0.0 - - - - - - -
22/08:30am 17.4 E 23 27 1019.1 - 0.0 - - - - - - -
22/08:00am 17.3 E 22 25 1019.1 - 0.0 - - - - - - -
22/07:30am 16.6 E 21 25 1019.2 - 0.0 - - - - - - -
22/07:00am 16.1 E 22 26 1018.9 - 0.0 - - - - - - -
22/06:30am 15.6 E 23 27 1018.9 - 0.0 - - - - - - -
22/06:00am 15.1 E 24 29 1018.7 - 0.0 - - - - - - -
22/05:30am 14.9 E 21 24 1018.9 - 0.0 - - - - - - -
22/05:00am 14.8 ENE 20 24 1018.9 - 0.0 - - - - - - -
22/04:30am 14.8 ENE 21 25 1018.7 - 0.0 - - - - - - -
22/04:00am 14.9 ENE 21 23 1018.8 - 0.0 - - - - - - -
22/03:30am 14.9 ENE 22 25 1018.9 - 0.0 - - - - - - -
22/03:00am 14.9 ENE 22 24 1019.0 - 0.0 - - - - - - -
22/02:30am 14.9 ENE 22 25 1019.1 - 0.0 - - - - - - -
22/02:00am 15.0 ENE 21 23 1019.5 - 0.0 - - - - - - -
22/01:30am 15.0 ENE 22 25 1019.6 - 0.0 - - - - - - -
22/01:00am 15.1 ENE 23 26 1019.9 - 0.0 - - - - - - -
22/12:30am 15.1 ENE 22 25 1020.1 - 0.0 - - - - - - -
22/12:00am 15.0 ENE 21 24 1020.3 - 0.0 - - - - - - -
 
Date/Time
EDT
Temp
°C
Wind Pressure Rain since
9am
mm
Weather Cloud Vis
km
Sea
Height
m
Swell
Dir  Spd
kts
Gust
kts
hPa Trend Height
m
Period
s
Dir
21/11:30pm 15.0 ENE 22 25 1020.6 - 0.0 - - - - - - -
21/11:00pm 15.0 ENE 19 22 1020.9 - 0.0 - - - - - - -
21/10:30pm 15.1 ENE 21 25 1020.8 - 0.0 - - - - - - -
21/10:00pm 15.2 ENE 22 26 1020.7 - 0.0 - - - - - - -
21/09:30pm 15.3 ENE 24 26 1020.5 - 0.0 - - - - - - -
21/09:00pm 15.4 ENE 22 25 1020.6 - 0.0 - - - - - - -
21/08:30pm 15.4 ENE 21 23 1020.7 - 0.0 - - - - - - -
21/08:00pm 15.7 ENE 20 23 1020.9 - 0.0 - - - - - - -
21/07:30pm 16.1 ENE 23 26 1020.3 - 0.0 - - - - - - -
21/07:00pm 16.5 ENE 23 27 1020.1 - 0.0 - - - - - - -
21/06:30pm 17.2 E 22 25 1019.9 - 0.0 - - - - - - -
21/06:00pm 17.6 E 24 29 1019.9 - 0.0 - - - - - - -
21/05:30pm 17.9 ENE 22 27 1020.1 - 0.0 - - - - - - -
21/05:00pm 18.6 ENE 22 25 1020.2 - 0.0 - - - - - - -
21/04:30pm 19.6 ENE 18 21 1020.4 - 0.0 - - - - - - -
21/04:00pm 19.2 ENE 19 20 1020.5 - 0.0 - - - - - - -
21/03:30pm 19.6 ENE 18 21 1020.7 - 0.0 - - - - - - -
21/03:00pm 20.0 ENE 18 20 1020.9 - 0.0 - - - - - - -
21/02:30pm 19.9 ENE 19 21 1021.2 - 0.0 - - - - - - -
21/02:00pm 19.9 ENE 20 22 1021.5 - 0.0 - - - - - - -
21/01:30pm 19.9 ENE 20 22 1021.7 - 0.0 - - - - - - -
21/01:00pm 19.7 ENE 21 23 1021.8 - 0.0 - - - - - - -
21/12:30pm 19.9 ENE 21 24 1022.0 - 0.0 - - - - - - -
21/12:00pm 19.9 ENE 21 24 1022.1 - 0.0 - - - - - - -
21/11:30am 19.9 ENE 22 24 1022.2 - 0.0 - - - - - - -
21/11:00am 19.4 ENE 22 25 1022.2 - 0.0 - - - - - - -
21/10:30am 19.3 ENE 22 25 1022.1 - 0.0 - - - - - - -
21/10:00am 18.9 ENE 23 25 1022.2 - 0.0 - - - - - - -
21/09:30am 18.5 ENE 22 24 1022.1 - 0.0 - - - - - - -
21/09:00am 18.0 ENE 22 24 1022.1 - 0.2 - - - - - - -
21/08:30am 17.5 ENE 22 24 1022.0 - 0.2 - - - - - - -
21/08:00am 16.9 ENE 21 24 1021.7 - 0.2 - - - - - - -
21/07:30am 16.3 ENE 22 25 1021.4 - 0.2 - - - - - - -
21/07:00am 15.8 ENE 22 25 1021.2 - 0.2 - - - - - - -
21/06:30am 15.3 ENE 21 24 1021.2 - 0.2 - - - - - - -
21/06:00am 15.0 ENE 22 25 1020.7 - 0.2 - - - - - - -
21/05:30am 14.9 ENE 22 25 1020.5 - 0.0 - - - - - - -
21/05:00am 14.9 ENE 21 23 1020.4 - 0.0 - - - - - - -
21/04:30am 15.0 ENE 20 23 1020.5 - 0.0 - - - - - - -
21/04:00am 15.2 E 22 25 1020.7 - 0.0 - - - - - - -
21/03:30am 15.2 E 22 26 1021.0 - 0.0 - - - - - - -
21/03:00am 15.3 E 21 25 1020.9 - 0.0 - - - - - - -
21/02:30am 15.2 E 19 23 1021.4 - 0.0 - - - - - - -
21/02:00am 15.2 E 20 22 1021.7 - 0.0 - - - - - - -
21/01:30am 15.1 E 18 21 1022.1 - 0.0 - - - - - - -
21/01:00am 15.0 E 17 19 1022.5 - 0.0 - - - - - - -
21/12:30am 15.1 E 17 19 1022.7 - 0.0 - - - - - - -
21/12:00am 15.2 E 17 19 1022.7 - 0.0 - - - - - - -
 
Date/Time
EDT
Temp
°C
Wind Pressure Rain since
9am
mm
Weather Cloud Vis
km
Sea
Height
m
Swell
Dir  Spd
kts
Gust
kts
hPa Trend Height
m
Period
s
Dir
20/11:30pm 15.2 E 16 19 1023.0 - 0.0 - - - - - - -
20/11:00pm 15.4 E 18 21 1023.3 - 0.0 - - - - - - -
20/10:30pm 15.4 E 18 21 1023.3 - 0.0 - - - - - - -
20/10:00pm 15.4 E 17 20 1023.6 - 0.0 - - - - - - -
20/09:30pm 15.4 E 19 21 1023.4 - 0.0 - - - - - - -
20/09:00pm 15.5 E 19 22 1023.0 - 0.0 - - - - - - -
20/08:30pm 15.5 E 20 22 1022.9 - 0.0 - - - - - - -
20/08:00pm 15.6 E 19 22 1022.8 - 0.0 - - - - - - -
20/07:30pm 16.1 E 21 25 1022.4 - 0.0 - - - - - - -
20/07:00pm 16.6 E 21 24 1022.4 - 0.0 - - - - - - -
20/06:30pm 17.2 E 19 22 1022.4 - 0.0 - - - - - - -
20/06:00pm 17.7 E 20 23 1022.4 - 0.0 - - - - - - -
20/05:30pm 18.3 E 20 25 1022.5 - 0.0 - - - - - - -
20/05:00pm 18.4 ENE 22 26 1022.6 - 0.0 - - - - - - -
20/04:30pm 19.2 ENE 21 25 1022.4 - 0.0 - - - - - - -
20/04:00pm 19.1 ENE 22 27 1022.8 - 0.0 - - - - - - -
20/03:30pm 19.6 ENE 22 26 1023.0 - 0.0 - - - - - - -
20/03:00pm 20.0 ENE 22 26 1023.1 - 0.0 - - - - - - -
20/02:30pm 20.2 ENE 21 25 1023.6 - 0.0 - - - - - - -
20/02:00pm 20.2 ENE 21 25 1023.7 - 0.0 - - - - - - -
20/01:30pm 20.2 E 20 24 1023.9 - 0.0 - - - - - - -
20/01:00pm 20.0 ENE 17 20 1024.2 - 0.0 - - - - - - -
20/12:30pm 19.7 ENE 15 17 1024.5 - 0.0 - - - - - - -
20/12:00pm 19.8 ENE 16 18 1024.3 - 0.0 - - - - - - -
20/11:30am 19.1 ENE 17 19 1024.1 - 0.0 - - - - - - -
20/11:00am 19.6 ENE 18 19 1024.2 - 0.0 - - - - - - -
20/10:30am 19.3 ENE 19 21 1024.3 - 0.0 - - - - - - -
20/10:00am 18.8 ENE 20 22 1024.2 - 0.0 - - - - - - -
20/09:30am 18.4 ENE 21 23 1024.2 - 0.0 - - - - - - -
20/09:00am 17.9 ENE 21 25 1024.0 - 0.2 - - - - - - -
20/08:30am 17.3 ENE 22 26 1024.0 - 0.2 - - - - - - -
20/08:00am 16.5 E 20 23 1023.7 - 0.2 - - - - - - -
20/07:30am 16.1 E 20 22 1023.4 - 0.2 - - - - - - -
20/07:00am 15.8 E 16 19 1023.5 - 0.2 - - - - - - -
20/06:30am 15.4 E 18 21 1023.0 - 0.2 - - - - - - -
20/06:00am 14.9 E 17 19 1022.6 - 0.2 - - - - - - -
20/05:30am 14.9 E 17 19 1022.5 - 0.0 - - - - - - -
20/05:00am 14.9 E 17 20 1022.1 - 0.0 - - - - - - -
20/04:30am 14.8 E 16 17 1022.3 - 0.0 - - - - - - -
20/04:00am 14.9 E 14 16 1022.4 - 0.0 - - - - - - -
20/03:30am 15.0 E 17 18 1022.1 - 0.0 - - - - - - -
20/03:00am 15.2 E 16 19 1022.1 - 0.0 - - - - - - -
20/02:30am 15.3 E 18 21 1022.1 - 0.0 - - - - - - -
20/02:00am 15.3 E 19 23 1022.1 - 0.0 - - - - - - -
20/01:30am 15.3 E 20 24 1022.1 - 0.0 - - - - - - -
20/01:00am 15.3 E 21 25 1022.0 - 0.0 - - - - - - -
20/12:30am 15.3 E 20 23 1022.2 - 0.0 - - - - - - -
20/12:00am 15.4 E 20 26 1022.6 - 0.0 - - - - - - -
 
Date/Time
EDT
Temp
°C
Wind Pressure Rain since
9am
mm
Weather Cloud Vis
km
Sea
Height
m
Swell
Dir  Spd
kts
Gust
kts
hPa Trend Height
m
Period
s
Dir
19/11:30pm 15.4 E 21 27 1022.5 - 0.0 - - - - - - -
19/11:00pm 15.6 E 22 27 1022.5 - 0.0 - - - - - - -
19/10:30pm 15.6 E 20 27 1022.7 - 0.0 - - - - - - -
19/10:00pm 15.7 E 23 29 1022.5 - 0.0 - - - - - - -
19/09:30pm 15.8 E 22 27 1022.4 - 0.0 - - - - - - -
19/09:00pm 15.9 E 21 25 1022.3 - 0.0 - - - - - - -
19/08:30pm 15.4 E 19 21 1022.3 - 0.0 - - - - - - -
19/08:00pm 15.6 E 18 20 1022.3 - 0.0 - - - - - - -
19/07:30pm 15.9 E 17 19 1022.3 - 0.0 - - - - - - -
19/07:00pm 16.6 E 17 19 1022.3 - 0.0 - - - - - - -
19/06:30pm 17.2 E 18 21 1022.1 - 0.0 - - - - - - -
19/06:00pm 17.7 E 18 20 1021.9 - 0.0 - - - - - - -
19/05:30pm 17.9 E 18 21 1021.9 - 0.0 - - - - - - -
19/05:00pm 18.4 E 18 21 1021.8 - 0.0 - - - - - - -
19/04:30pm 18.4 E 19 21 1021.9 - 0.0 - - - - - - -
19/04:00pm 18.7 E 18 22 1022.0 - 0.0 - - - - - - -
19/03:30pm 19.4 ENE 19 25 1022.1 - 0.0 - - - - - - -
19/03:00pm 19.9 ENE 20 24 1022.0 - 0.0 - - - - - - -

Other Formats:

Comma delimited format used in spreadsheet applications
http://www.bom.gov.au/fwo/IDV60701/IDV60701.94949.axf

JavaScript Object Notation format (JSON) in row-major order
http://www.bom.gov.au/fwo/IDV60701/IDV60701.94949.json